sensor_id;sensor_type;location;lat;lon;timestamp;temperature;humidity
12025;DHT22;6073;53.230;10.444;2023-02-11T00:00:32;5.50;99.90
12025;DHT22;6073;53.230;10.444;2023-02-11T00:02:58;5.60;99.90
12025;DHT22;6073;53.230;10.444;2023-02-11T00:05:24;5.60;99.90
12025;DHT22;6073;53.230;10.444;2023-02-11T00:07:49;5.60;99.90
12025;DHT22;6073;53.230;10.444;2023-02-11T00:10:15;5.60;99.90
12025;DHT22;6073;53.230;10.444;2023-02-11T00:12:40;5.60;99.90
12025;DHT22;6073;53.230;10.444;2023-02-11T00:15:08;5.50;99.90
12025;DHT22;6073;53.230;10.444;2023-02-11T00:17:34;5.60;99.90
12025;DHT22;6073;53.230;10.444;2023-02-11T00:20:00;5.50;99.90
12025;DHT22;6073;53.230;10.444;2023-02-11T00:22:25;5.60;99.90
12025;DHT22;6073;53.230;10.444;2023-02-11T00:24:51;5.60;99.90
12025;DHT22;6073;53.230;10.444;2023-02-11T00:27:16;5.60;99.90
12025;DHT22;6073;53.230;10.444;2023-02-11T00:29:42;5.60;99.90
12025;DHT22;6073;53.230;10.444;2023-02-11T00:32:09;5.60;99.90
12025;DHT22;6073;53.230;10.444;2023-02-11T00:34:35;5.60;99.90
12025;DHT22;6073;53.230;10.444;2023-02-11T00:37:01;5.60;99.90
12025;DHT22;6073;53.230;10.444;2023-02-11T00:39:27;5.60;99.90
12025;DHT22;6073;53.230;10.444;2023-02-11T00:41:52;5.60;99.90
12025;DHT22;6073;53.230;10.444;2023-02-11T00:44:18;5.60;99.90
12025;DHT22;6073;53.230;10.444;2023-02-11T00:46:43;5.60;99.90
12025;DHT22;6073;53.230;10.444;2023-02-11T00:49:09;5.60;99.90
12025;DHT22;6073;53.230;10.444;2023-02-11T00:51:35;5.60;99.90
12025;DHT22;6073;53.230;10.444;2023-02-11T00:54:01;5.70;99.90
12025;DHT22;6073;53.230;10.444;2023-02-11T00:56:26;5.70;99.90
12025;DHT22;6073;53.230;10.444;2023-02-11T00:58:52;5.70;99.90
12025;DHT22;6073;53.230;10.444;2023-02-11T01:01:18;5.60;99.90
12025;DHT22;6073;53.230;10.444;2023-02-11T01:03:44;5.60;99.90
12025;DHT22;6073;53.230;10.444;2023-02-11T01:06:09;5.60;99.90
12025;DHT22;6073;53.230;10.444;2023-02-11T01:08:36;5.60;99.90
12025;DHT22;6073;53.230;10.444;2023-02-11T01:11:05;5.60;99.90
12025;DHT22;6073;53.230;10.444;2023-02-11T01:13:32;5.60;99.90
12025;DHT22;6073;53.230;10.444;2023-02-11T01:15:58;5.50;99.90
12025;DHT22;6073;53.230;10.444;2023-02-11T01:18:24;5.50;99.90
12025;DHT22;6073;53.230;10.444;2023-02-11T01:20:52;5.50;99.90
12025;DHT22;6073;53.230;10.444;2023-02-11T01:23:18;5.60;99.90
12025;DHT22;6073;53.230;10.444;2023-02-11T01:25:44;5.60;99.90
12025;DHT22;6073;53.230;10.444;2023-02-11T01:28:21;5.60;99.90
12025;DHT22;6073;53.230;10.444;2023-02-11T01:30:47;5.60;99.90
12025;DHT22;6073;53.230;10.444;2023-02-11T01:33:13;5.50;99.90
12025;DHT22;6073;53.230;10.444;2023-02-11T01:35:39;5.50;99.90
12025;DHT22;6073;53.230;10.444;2023-02-11T01:38:13;5.50;99.90
12025;DHT22;6073;53.230;10.444;2023-02-11T01:40:38;5.50;99.90
12025;DHT22;6073;53.230;10.444;2023-02-11T01:43:04;5.60;99.90
12025;DHT22;6073;53.230;10.444;2023-02-11T01:45:56;5.50;99.90
12025;DHT22;6073;53.230;10.444;2023-02-11T01:48:29;5.60;99.90
12025;DHT22;6073;53.230;10.444;2023-02-11T01:51:03;5.60;99.90
12025;DHT22;6073;53.230;10.444;2023-02-11T01:53:31;5.60;99.90
12025;DHT22;6073;53.230;10.444;2023-02-11T01:56:17;5.60;99.90
12025;DHT22;6073;53.230;10.444;2023-02-11T01:59:06;5.60;99.90
12025;DHT22;6073;53.230;10.444;2023-02-11T02:01:37;5.60;99.90
12025;DHT22;6073;53.230;10.444;2023-02-11T02:04:07;5.60;99.90
12025;DHT22;6073;53.230;10.444;2023-02-11T02:06:43;5.60;99.90
12025;DHT22;6073;53.230;10.444;2023-02-11T02:09:32;5.50;99.90
12025;DHT22;6073;53.230;10.444;2023-02-11T02:12:01;5.50;99.90
12025;DHT22;6073;53.230;10.444;2023-02-11T02:14:26;5.50;99.90
12025;DHT22;6073;53.230;10.444;2023-02-11T02:16:53;5.50;99.90
12025;DHT22;6073;53.230;10.444;2023-02-11T02:28:42;5.50;99.90
12025;DHT22;6073;53.230;10.444;2023-02-11T02:34:18;5.50;99.90
12025;DHT22;6073;53.230;10.444;2023-02-11T02:37:08;5.50;99.90
12025;DHT22;6073;53.230;10.444;2023-02-11T02:39:34;5.50;99.90
12025;DHT22;6073;53.230;10.444;2023-02-11T02:42:01;5.50;99.90
12025;DHT22;6073;53.230;10.444;2023-02-11T02:44:28;5.50;99.90
12025;DHT22;6073;53.230;10.444;2023-02-11T02:46:54;5.50;99.90
12025;DHT22;6073;53.230;10.444;2023-02-11T02:49:19;5.50;99.90
12025;DHT22;6073;53.230;10.444;2023-02-11T02:52:09;5.60;99.90
12025;DHT22;6073;53.230;10.444;2023-02-11T03:00:43;5.50;99.90
12025;DHT22;6073;53.230;10.444;2023-02-11T03:06:24;5.50;99.90
12025;DHT22;6073;53.230;10.444;2023-02-11T03:08:58;5.50;99.90
12025;DHT22;6073;53.230;10.444;2023-02-11T03:11:26;5.50;99.90
12025;DHT22;6073;53.230;10.444;2023-02-11T03:13:54;5.50;99.90
12025;DHT22;6073;53.230;10.444;2023-02-11T03:16:24;5.60;99.90
12025;DHT22;6073;53.230;10.444;2023-02-11T03:19:05;5.60;99.90
12025;DHT22;6073;53.230;10.444;2023-02-11T03:21:35;5.60;99.90
12025;DHT22;6073;53.230;10.444;2023-02-11T03:24:07;5.70;99.90
12025;DHT22;6073;53.230;10.444;2023-02-11T03:26:45;5.70;99.90
12025;DHT22;6073;53.230;10.444;2023-02-11T03:29:17;5.70;99.90
12025;DHT22;6073;53.230;10.444;2023-02-11T03:31:58;5.70;99.90
12025;DHT22;6073;53.230;10.444;2023-02-11T03:34:36;5.60;99.90
12025;DHT22;6073;53.230;10.444;2023-02-11T03:37:11;5.60;99.90
12025;DHT22;6073;53.230;10.444;2023-02-11T03:39:43;5.60;99.90
12025;DHT22;6073;53.230;10.444;2023-02-11T03:42:10;5.60;99.90
12025;DHT22;6073;53.230;10.444;2023-02-11T03:44:42;5.70;99.90
12025;DHT22;6073;53.230;10.444;2023-02-11T03:47:09;5.70;99.90
12025;DHT22;6073;53.230;10.444;2023-02-11T03:49:37;5.70;99.90
12025;DHT22;6073;53.230;10.444;2023-02-11T03:52:06;5.70;99.90
12025;DHT22;6073;53.230;10.444;2023-02-11T03:54:33;5.70;99.90
12025;DHT22;6073;53.230;10.444;2023-02-11T03:57:00;5.70;99.90
12025;DHT22;6073;53.230;10.444;2023-02-11T03:59:27;5.70;99.90
12025;DHT22;6073;53.230;10.444;2023-02-11T04:01:53;5.70;99.90
12025;DHT22;6073;53.230;10.444;2023-02-11T04:04:19;5.80;99.90
12025;DHT22;6073;53.230;10.444;2023-02-11T04:06:44;5.80;99.90
12025;DHT22;6073;53.230;10.444;2023-02-11T04:09:11;5.80;99.90
12025;DHT22;6073;53.230;10.444;2023-02-11T04:11:36;5.80;99.90
12025;DHT22;6073;53.230;10.444;2023-02-11T04:14:02;5.90;99.90
12025;DHT22;6073;53.230;10.444;2023-02-11T04:16:28;5.90;99.90
12025;DHT22;6073;53.230;10.444;2023-02-11T04:18:55;5.90;99.90
12025;DHT22;6073;53.230;10.444;2023-02-11T04:21:21;6.00;99.90
12025;DHT22;6073;53.230;10.444;2023-02-11T04:23:46;6.00;99.90
12025;DHT22;6073;53.230;10.444;2023-02-11T04:26:12;6.10;99.90
12025;DHT22;6073;53.230;10.444;2023-02-11T04:28:37;6.10;99.90
12025;DHT22;6073;53.230;10.444;2023-02-11T04:31:03;6.10;99.90
12025;DHT22;6073;53.230;10.444;2023-02-11T04:33:28;6.20;99.90
12025;DHT22;6073;53.230;10.444;2023-02-11T04:35:54;6.20;99.90
12025;DHT22;6073;53.230;10.444;2023-02-11T04:38:20;6.20;99.90
12025;DHT22;6073;53.230;10.444;2023-02-11T04:40:48;6.30;99.90
12025;DHT22;6073;53.230;10.444;2023-02-11T04:43:14;6.30;99.90
12025;DHT22;6073;53.230;10.444;2023-02-11T04:45:39;6.40;99.90
12025;DHT22;6073;53.230;10.444;2023-02-11T04:48:05;6.40;99.90
12025;DHT22;6073;53.230;10.444;2023-02-11T04:50:31;6.40;99.90
12025;DHT22;6073;53.230;10.444;2023-02-11T04:52:56;6.40;99.90
12025;DHT22;6073;53.230;10.444;2023-02-11T04:55:23;6.40;99.90
12025;DHT22;6073;53.230;10.444;2023-02-11T04:57:48;6.40;99.90
12025;DHT22;6073;53.230;10.444;2023-02-11T05:00:14;6.40;99.90
12025;DHT22;6073;53.230;10.444;2023-02-11T05:02:40;6.50;99.90
12025;DHT22;6073;53.230;10.444;2023-02-11T05:05:05;6.50;99.90
12025;DHT22;6073;53.230;10.444;2023-02-11T05:07:31;6.50;99.90
12025;DHT22;6073;53.230;10.444;2023-02-11T05:09:57;6.50;99.90
12025;DHT22;6073;53.230;10.444;2023-02-11T05:12:22;6.50;99.90
12025;DHT22;6073;53.230;10.444;2023-02-11T05:14:48;6.40;99.90
12025;DHT22;6073;53.230;10.444;2023-02-11T05:17:13;6.50;99.90
12025;DHT22;6073;53.230;10.444;2023-02-11T05:19:40;6.50;99.90
12025;DHT22;6073;53.230;10.444;2023-02-11T05:22:06;6.50;99.90
12025;DHT22;6073;53.230;10.444;2023-02-11T05:24:32;6.50;99.90
12025;DHT22;6073;53.230;10.444;2023-02-11T05:26:58;6.50;99.90
12025;DHT22;6073;53.230;10.444;2023-02-11T05:29:23;6.50;99.90
12025;DHT22;6073;53.230;10.444;2023-02-11T05:31:49;6.50;99.90
12025;DHT22;6073;53.230;10.444;2023-02-11T05:34:14;6.50;99.90
12025;DHT22;6073;53.230;10.444;2023-02-11T05:36:40;6.60;99.90
12025;DHT22;6073;53.230;10.444;2023-02-11T05:39:05;6.50;99.90
12025;DHT22;6073;53.230;10.444;2023-02-11T05:41:31;6.60;99.90
12025;DHT22;6073;53.230;10.444;2023-02-11T05:43:56;6.60;99.90
12025;DHT22;6073;53.230;10.444;2023-02-11T05:46:22;6.60;99.90
12025;DHT22;6073;53.230;10.444;2023-02-11T05:48:47;6.60;99.90
12025;DHT22;6073;53.230;10.444;2023-02-11T05:51:13;6.70;99.90
12025;DHT22;6073;53.230;10.444;2023-02-11T05:53:39;6.70;99.90
12025;DHT22;6073;53.230;10.444;2023-02-11T05:56:04;6.70;99.90
12025;DHT22;6073;53.230;10.444;2023-02-11T05:58:31;6.70;99.90
12025;DHT22;6073;53.230;10.444;2023-02-11T06:00:56;6.60;99.90
12025;DHT22;6073;53.230;10.444;2023-02-11T06:03:22;6.60;99.90
12025;DHT22;6073;53.230;10.444;2023-02-11T06:05:48;6.60;99.90
12025;DHT22;6073;53.230;10.444;2023-02-11T06:08:13;6.60;99.90
12025;DHT22;6073;53.230;10.444;2023-02-11T06:10:39;6.60;99.90
12025;DHT22;6073;53.230;10.444;2023-02-11T06:13:07;6.60;99.90
12025;DHT22;6073;53.230;10.444;2023-02-11T06:15:33;6.70;99.90
12025;DHT22;6073;53.230;10.444;2023-02-11T06:17:58;6.80;99.90
12025;DHT22;6073;53.230;10.444;2023-02-11T06:20:24;6.80;99.90
12025;DHT22;6073;53.230;10.444;2023-02-11T06:22:49;6.70;99.90
12025;DHT22;6073;53.230;10.444;2023-02-11T06:25:15;6.80;99.90
12025;DHT22;6073;53.230;10.444;2023-02-11T06:27:40;6.80;99.90
12025;DHT22;6073;53.230;10.444;2023-02-11T06:30:07;6.80;99.90
12025;DHT22;6073;53.230;10.444;2023-02-11T06:32:33;6.80;99.90
12025;DHT22;6073;53.230;10.444;2023-02-11T06:34:59;6.80;99.90
12025;DHT22;6073;53.230;10.444;2023-02-11T06:37:24;6.80;99.90
12025;DHT22;6073;53.230;10.444;2023-02-11T06:39:50;6.80;99.90
12025;DHT22;6073;53.230;10.444;2023-02-11T06:42:15;6.80;99.90
12025;DHT22;6073;53.230;10.444;2023-02-11T06:44:41;6.80;99.90
12025;DHT22;6073;53.230;10.444;2023-02-11T06:47:07;6.80;99.90
12025;DHT22;6073;53.230;10.444;2023-02-11T06:49:32;6.80;99.90
12025;DHT22;6073;53.230;10.444;2023-02-11T06:51:58;6.90;99.90
12025;DHT22;6073;53.230;10.444;2023-02-11T06:54:23;6.90;99.90
12025;DHT22;6073;53.230;10.444;2023-02-11T06:56:49;7.00;99.90
12025;DHT22;6073;53.230;10.444;2023-02-11T06:59:16;7.00;99.90
12025;DHT22;6073;53.230;10.444;2023-02-11T07:01:42;6.90;99.90
12025;DHT22;6073;53.230;10.444;2023-02-11T07:04:08;7.00;99.90
12025;DHT22;6073;53.230;10.444;2023-02-11T07:06:33;6.90;99.90
12025;DHT22;6073;53.230;10.444;2023-02-11T07:09:02;7.00;99.90
12025;DHT22;6073;53.230;10.444;2023-02-11T07:11:28;7.10;99.90
12025;DHT22;6073;53.230;10.444;2023-02-11T07:13:58;7.00;99.90
12025;DHT22;6073;53.230;10.444;2023-02-11T07:16:24;7.00;99.90
12025;DHT22;6073;53.230;10.444;2023-02-11T07:18:49;7.00;99.90
12025;DHT22;6073;53.230;10.444;2023-02-11T07:21:18;7.10;99.90
12025;DHT22;6073;53.230;10.444;2023-02-11T07:23:45;7.10;99.90
12025;DHT22;6073;53.230;10.444;2023-02-11T07:26:13;7.10;99.90
12025;DHT22;6073;53.230;10.444;2023-02-11T07:28:39;7.10;99.90
12025;DHT22;6073;53.230;10.444;2023-02-11T07:31:10;7.10;99.90
12025;DHT22;6073;53.230;10.444;2023-02-11T07:33:37;7.10;99.90
12025;DHT22;6073;53.230;10.444;2023-02-11T07:36:04;7.10;99.90
12025;DHT22;6073;53.230;10.444;2023-02-11T07:38:31;7.10;99.90
12025;DHT22;6073;53.230;10.444;2023-02-11T07:41:00;7.20;99.90
12025;DHT22;6073;53.230;10.444;2023-02-11T07:43:27;7.10;99.90
12025;DHT22;6073;53.230;10.444;2023-02-11T07:45:52;7.10;99.90
12025;DHT22;6073;53.230;10.444;2023-02-11T07:48:18;7.10;99.90
12025;DHT22;6073;53.230;10.444;2023-02-11T07:50:44;7.20;99.90
12025;DHT22;6073;53.230;10.444;2023-02-11T07:53:09;7.10;99.90
12025;DHT22;6073;53.230;10.444;2023-02-11T07:55:35;7.10;99.90
12025;DHT22;6073;53.230;10.444;2023-02-11T07:58:00;7.10;99.90
12025;DHT22;6073;53.230;10.444;2023-02-11T08:00:26;7.20;99.90
12025;DHT22;6073;53.230;10.444;2023-02-11T08:02:51;7.20;99.90
12025;DHT22;6073;53.230;10.444;2023-02-11T08:05:17;7.20;99.90
12025;DHT22;6073;53.230;10.444;2023-02-11T08:07:42;7.20;99.90
12025;DHT22;6073;53.230;10.444;2023-02-11T08:10:08;7.20;99.90
12025;DHT22;6073;53.230;10.444;2023-02-11T08:12:34;7.10;99.90
12025;DHT22;6073;53.230;10.444;2023-02-11T08:14:59;7.10;99.90
12025;DHT22;6073;53.230;10.444;2023-02-11T08:17:25;7.20;99.90
12025;DHT22;6073;53.230;10.444;2023-02-11T08:19:51;7.10;99.90
12025;DHT22;6073;53.230;10.444;2023-02-11T08:22:16;7.20;99.90
12025;DHT22;6073;53.230;10.444;2023-02-11T08:24:42;7.20;99.90
12025;DHT22;6073;53.230;10.444;2023-02-11T08:27:07;7.20;99.90
12025;DHT22;6073;53.230;10.444;2023-02-11T08:29:33;7.20;99.90
12025;DHT22;6073;53.230;10.444;2023-02-11T08:31:58;7.20;99.90
12025;DHT22;6073;53.230;10.444;2023-02-11T08:34:24;7.20;99.90
12025;DHT22;6073;53.230;10.444;2023-02-11T08:36:49;7.20;99.90
12025;DHT22;6073;53.230;10.444;2023-02-11T08:39:18;7.20;99.90
12025;DHT22;6073;53.230;10.444;2023-02-11T08:41:45;7.30;99.90
12025;DHT22;6073;53.230;10.444;2023-02-11T08:44:11;7.20;99.90
12025;DHT22;6073;53.230;10.444;2023-02-11T08:46:37;7.30;99.90
12025;DHT22;6073;53.230;10.444;2023-02-11T08:49:02;7.40;99.90
12025;DHT22;6073;53.230;10.444;2023-02-11T08:51:28;7.40;99.90
12025;DHT22;6073;53.230;10.444;2023-02-11T08:53:58;7.40;99.90
12025;DHT22;6073;53.230;10.444;2023-02-11T08:56:24;7.40;99.90
12025;DHT22;6073;53.230;10.444;2023-02-11T08:58:49;7.40;99.90
12025;DHT22;6073;53.230;10.444;2023-02-11T09:01:18;7.40;99.90
12025;DHT22;6073;53.230;10.444;2023-02-11T09:03:44;7.50;99.90
12025;DHT22;6073;53.230;10.444;2023-02-11T09:06:11;7.50;99.90
12025;DHT22;6073;53.230;10.444;2023-02-11T09:08:40;7.60;99.90
12025;DHT22;6073;53.230;10.444;2023-02-11T09:11:07;7.60;99.90
12025;DHT22;6073;53.230;10.444;2023-02-11T09:13:33;7.60;99.90
12025;DHT22;6073;53.230;10.444;2023-02-11T09:16:00;7.70;99.90
12025;DHT22;6073;53.230;10.444;2023-02-11T09:18:26;7.70;99.90
12025;DHT22;6073;53.230;10.444;2023-02-11T09:20:53;7.70;99.90
12025;DHT22;6073;53.230;10.444;2023-02-11T09:23:25;7.70;99.90
12025;DHT22;6073;53.230;10.444;2023-02-11T09:25:51;7.70;99.90
12025;DHT22;6073;53.230;10.444;2023-02-11T09:28:16;7.80;99.90
12025;DHT22;6073;53.230;10.444;2023-02-11T09:30:42;7.80;99.90
12025;DHT22;6073;53.230;10.444;2023-02-11T09:33:07;7.80;99.90
12025;DHT22;6073;53.230;10.444;2023-02-11T09:35:33;7.80;99.90
12025;DHT22;6073;53.230;10.444;2023-02-11T09:37:59;7.80;99.90
12025;DHT22;6073;53.230;10.444;2023-02-11T09:40:24;7.90;99.90
12025;DHT22;6073;53.230;10.444;2023-02-11T09:42:56;7.90;99.90
12025;DHT22;6073;53.230;10.444;2023-02-11T09:45:27;7.90;99.90
12025;DHT22;6073;53.230;10.444;2023-02-11T09:48:00;7.90;99.90
12025;DHT22;6073;53.230;10.444;2023-02-11T09:50:31;7.90;99.90
12025;DHT22;6073;53.230;10.444;2023-02-11T09:53:21;7.90;99.90
12025;DHT22;6073;53.230;10.444;2023-02-11T09:55:51;7.90;99.90
12025;DHT22;6073;53.230;10.444;2023-02-11T09:58:33;7.90;99.90
12025;DHT22;6073;53.230;10.444;2023-02-11T10:04:29;7.90;99.90
12025;DHT22;6073;53.230;10.444;2023-02-11T10:07:10;8.00;99.90
12025;DHT22;6073;53.230;10.444;2023-02-11T10:15:31;8.00;99.90
12025;DHT22;6073;53.230;10.444;2023-02-11T10:21:16;8.00;99.90
12025;DHT22;6073;53.230;10.444;2023-02-11T10:23:47;8.00;99.90
12025;DHT22;6073;53.230;10.444;2023-02-11T10:26:17;8.10;99.90
12025;DHT22;6073;53.230;10.444;2023-02-11T10:28:48;8.00;99.90
12025;DHT22;6073;53.230;10.444;2023-02-11T10:31:20;8.10;99.90
12025;DHT22;6073;53.230;10.444;2023-02-11T10:33:55;8.10;99.90
12025;DHT22;6073;53.230;10.444;2023-02-11T10:36:27;8.00;99.90
12025;DHT22;6073;53.230;10.444;2023-02-11T10:39:20;8.10;99.90
12025;DHT22;6073;53.230;10.444;2023-02-11T10:41:56;8.10;99.90
12025;DHT22;6073;53.230;10.444;2023-02-11T10:44:37;8.10;99.90
12025;DHT22;6073;53.230;10.444;2023-02-11T10:47:31;8.10;99.90
12025;DHT22;6073;53.230;10.444;2023-02-11T10:49:58;8.20;99.90
12025;DHT22;6073;53.230;10.444;2023-02-11T10:52:29;8.20;99.90
12025;DHT22;6073;53.230;10.444;2023-02-11T10:55:15;8.20;99.90
12025;DHT22;6073;53.230;10.444;2023-02-11T10:57:58;8.20;99.90
12025;DHT22;6073;53.230;10.444;2023-02-11T11:00:41;8.20;99.90
12025;DHT22;6073;53.230;10.444;2023-02-11T11:03:22;8.20;99.90
12025;DHT22;6073;53.230;10.444;2023-02-11T11:05:51;8.20;99.90
12025;DHT22;6073;53.230;10.444;2023-02-11T11:08:18;8.20;99.90
12025;DHT22;6073;53.230;10.444;2023-02-11T11:16:35;8.20;99.90
12025;DHT22;6073;53.230;10.444;2023-02-11T11:21:53;8.20;99.90
12025;DHT22;6073;53.230;10.444;2023-02-11T11:24:32;8.20;99.90
12025;DHT22;6073;53.230;10.444;2023-02-11T11:27:01;8.20;99.90
12025;DHT22;6073;53.230;10.444;2023-02-11T11:29:34;8.20;99.90
12025;DHT22;6073;53.230;10.444;2023-02-11T11:32:15;8.20;99.90
12025;DHT22;6073;53.230;10.444;2023-02-11T11:34:49;8.20;99.90
12025;DHT22;6073;53.230;10.444;2023-02-11T11:37:36;8.20;99.90
12025;DHT22;6073;53.230;10.444;2023-02-11T11:40:09;8.20;99.90
12025;DHT22;6073;53.230;10.444;2023-02-11T11:42:37;8.10;99.90
12025;DHT22;6073;53.230;10.444;2023-02-11T11:45:17;8.10;99.90
12025;DHT22;6073;53.230;10.444;2023-02-11T11:50:40;8.20;99.90
12025;DHT22;6073;53.230;10.444;2023-02-11T11:55:49;8.30;99.90
12025;DHT22;6073;53.230;10.444;2023-02-11T11:58:19;8.30;99.90
12025;DHT22;6073;53.230;10.444;2023-02-11T12:09:45;8.30;99.90
12025;DHT22;6073;53.230;10.444;2023-02-11T12:17:59;8.20;99.90
12025;DHT22;6073;53.230;10.444;2023-02-11T12:23:44;8.20;99.90
12025;DHT22;6073;53.230;10.444;2023-02-11T12:26:21;8.20;99.90
12025;DHT22;6073;53.230;10.444;2023-02-11T12:29:08;8.20;99.90
12025;DHT22;6073;53.230;10.444;2023-02-11T12:31:58;8.10;99.90
12025;DHT22;6073;53.230;10.444;2023-02-11T12:40:16;8.10;99.90
12025;DHT22;6073;53.230;10.444;2023-02-11T12:46:24;8.10;99.90
12025;DHT22;6073;53.230;10.444;2023-02-11T12:57:28;8.10;99.90
12025;DHT22;6073;53.230;10.444;2023-02-11T13:00:24;8.20;99.90
12025;DHT22;6073;53.230;10.444;2023-02-11T13:10:53;8.10;99.90
12025;DHT22;6073;53.230;10.444;2023-02-11T13:13:24;8.10;99.90
12025;DHT22;6073;53.230;10.444;2023-02-11T13:15:55;8.10;99.90
12025;DHT22;6073;53.230;10.444;2023-02-11T13:18:46;8.10;99.90
12025;DHT22;6073;53.230;10.444;2023-02-11T13:29:39;8.10;99.90
12025;DHT22;6073;53.230;10.444;2023-02-11T13:32:12;8.10;99.90
12025;DHT22;6073;53.230;10.444;2023-02-11T13:40:21;8.20;99.90
12025;DHT22;6073;53.230;10.444;2023-02-11T13:42:55;8.20;99.90
12025;DHT22;6073;53.230;10.444;2023-02-11T13:47:56;8.30;99.90
12025;DHT22;6073;53.230;10.444;2023-02-11T13:50:23;8.30;99.90
12025;DHT22;6073;53.230;10.444;2023-02-11T13:52:56;8.30;99.90
12025;DHT22;6073;53.230;10.444;2023-02-11T13:55:23;8.30;99.90
12025;DHT22;6073;53.230;10.444;2023-02-11T14:03:37;8.40;99.90
12025;DHT22;6073;53.230;10.444;2023-02-11T14:06:27;8.30;99.90
12025;DHT22;6073;53.230;10.444;2023-02-11T14:11:52;8.30;99.90
12025;DHT22;6073;53.230;10.444;2023-02-11T14:14:21;8.40;99.90
12025;DHT22;6073;53.230;10.444;2023-02-11T14:17:17;8.40;99.90
12025;DHT22;6073;53.230;10.444;2023-02-11T14:19:46;8.40;99.90
12025;DHT22;6073;53.230;10.444;2023-02-11T14:22:18;8.40;99.90
12025;DHT22;6073;53.230;10.444;2023-02-11T14:24:51;8.40;99.90
12025;DHT22;6073;53.230;10.444;2023-02-11T14:27:41;8.40;99.90
12025;DHT22;6073;53.230;10.444;2023-02-11T14:41:26;8.50;99.90
12025;DHT22;6073;53.230;10.444;2023-02-11T14:43:57;8.50;99.90
12025;DHT22;6073;53.230;10.444;2023-02-11T14:46:24;8.50;99.90
12025;DHT22;6073;53.230;10.444;2023-02-11T14:48:53;8.50;99.90
12025;DHT22;6073;53.230;10.444;2023-02-11T14:51:27;8.50;99.90
12025;DHT22;6073;53.230;10.444;2023-02-11T14:53:59;8.50;99.90
12025;DHT22;6073;53.230;10.444;2023-02-11T14:56:28;8.50;99.90
12025;DHT22;6073;53.230;10.444;2023-02-11T14:58:59;8.50;99.90
12025;DHT22;6073;53.230;10.444;2023-02-11T15:01:30;8.50;99.90
12025;DHT22;6073;53.230;10.444;2023-02-11T15:03:57;8.50;99.90
12025;DHT22;6073;53.230;10.444;2023-02-11T15:06:31;8.50;99.90
12025;DHT22;6073;53.230;10.444;2023-02-11T15:09:00;8.50;99.90
12025;DHT22;6073;53.230;10.444;2023-02-11T15:11:28;8.40;99.90
12025;DHT22;6073;53.230;10.444;2023-02-11T15:13:55;8.40;99.90
12025;DHT22;6073;53.230;10.444;2023-02-11T15:16:25;8.40;99.90
12025;DHT22;6073;53.230;10.444;2023-02-11T15:18:59;8.40;99.90
12025;DHT22;6073;53.230;10.444;2023-02-11T15:21:28;8.40;99.90
12025;DHT22;6073;53.230;10.444;2023-02-11T15:24:01;8.40;99.90
12025;DHT22;6073;53.230;10.444;2023-02-11T15:26:27;8.30;99.90
12025;DHT22;6073;53.230;10.444;2023-02-11T15:28:53;8.30;99.90
12025;DHT22;6073;53.230;10.444;2023-02-11T15:31:23;8.20;99.90
12025;DHT22;6073;53.230;10.444;2023-02-11T15:33:49;8.30;99.90
12025;DHT22;6073;53.230;10.444;2023-02-11T15:36:16;8.20;99.90
12025;DHT22;6073;53.230;10.444;2023-02-11T15:38:42;8.20;99.90
12025;DHT22;6073;53.230;10.444;2023-02-11T15:41:37;8.20;99.90
12025;DHT22;6073;53.230;10.444;2023-02-11T15:44:03;8.20;99.90
12025;DHT22;6073;53.230;10.444;2023-02-11T15:46:36;8.20;99.90
12025;DHT22;6073;53.230;10.444;2023-02-11T15:49:03;8.20;99.90
12025;DHT22;6073;53.230;10.444;2023-02-11T15:51:34;8.20;99.90
12025;DHT22;6073;53.230;10.444;2023-02-11T15:54:02;8.20;99.90
12025;DHT22;6073;53.230;10.444;2023-02-11T15:56:35;8.20;99.90
12025;DHT22;6073;53.230;10.444;2023-02-11T15:59:26;8.10;99.90
12025;DHT22;6073;53.230;10.444;2023-02-11T16:01:55;8.10;99.90
12025;DHT22;6073;53.230;10.444;2023-02-11T16:04:24;8.10;99.90
12025;DHT22;6073;53.230;10.444;2023-02-11T16:06:51;8.10;99.90
12025;DHT22;6073;53.230;10.444;2023-02-11T16:19:45;8.10;99.90
12025;DHT22;6073;53.230;10.444;2023-02-11T16:22:16;8.10;99.90
12025;DHT22;6073;53.230;10.444;2023-02-11T16:24:46;8.10;99.90
12025;DHT22;6073;53.230;10.444;2023-02-11T16:27:41;8.10;99.90
12025;DHT22;6073;53.230;10.444;2023-02-11T16:30:35;8.10;99.90
12025;DHT22;6073;53.230;10.444;2023-02-11T16:33:04;8.10;99.90
12025;DHT22;6073;53.230;10.444;2023-02-11T16:35:30;8.10;99.90
12025;DHT22;6073;53.230;10.444;2023-02-11T16:37:56;8.10;99.90
12025;DHT22;6073;53.230;10.444;2023-02-11T16:40:21;8.00;99.90
12025;DHT22;6073;53.230;10.444;2023-02-11T16:42:50;8.10;99.90
12025;DHT22;6073;53.230;10.444;2023-02-11T16:45:17;8.00;99.90
12025;DHT22;6073;53.230;10.444;2023-02-11T16:47:43;8.10;99.90
12025;DHT22;6073;53.230;10.444;2023-02-11T16:50:11;8.10;99.90
12025;DHT22;6073;53.230;10.444;2023-02-11T16:52:43;8.10;99.90
12025;DHT22;6073;53.230;10.444;2023-02-11T16:55:11;8.00;99.90
12025;DHT22;6073;53.230;10.444;2023-02-11T16:57:36;8.10;99.90
12025;DHT22;6073;53.230;10.444;2023-02-11T17:00:04;8.10;99.90
12025;DHT22;6073;53.230;10.444;2023-02-11T17:02:33;8.10;99.90
12025;DHT22;6073;53.230;10.444;2023-02-11T17:05:02;8.10;99.90
12025;DHT22;6073;53.230;10.444;2023-02-11T17:07:29;8.10;99.90
12025;DHT22;6073;53.230;10.444;2023-02-11T17:09:55;8.00;99.90
12025;DHT22;6073;53.230;10.444;2023-02-11T17:12:20;8.10;99.90
12025;DHT22;6073;53.230;10.444;2023-02-11T17:14:46;8.00;99.90
12025;DHT22;6073;53.230;10.444;2023-02-11T17:17:12;8.10;99.90
12025;DHT22;6073;53.230;10.444;2023-02-11T17:19:38;8.10;99.90
12025;DHT22;6073;53.230;10.444;2023-02-11T17:22:04;8.00;99.90
12025;DHT22;6073;53.230;10.444;2023-02-11T17:24:30;8.00;99.90
12025;DHT22;6073;53.230;10.444;2023-02-11T17:26:55;8.00;99.90
12025;DHT22;6073;53.230;10.444;2023-02-11T17:29:23;8.00;99.90
12025;DHT22;6073;53.230;10.444;2023-02-11T17:31:50;8.00;99.90
12025;DHT22;6073;53.230;10.444;2023-02-11T17:34:17;8.00;99.90
12025;DHT22;6073;53.230;10.444;2023-02-11T17:36:44;8.00;99.90
12025;DHT22;6073;53.230;10.444;2023-02-11T17:39:10;8.00;99.90
12025;DHT22;6073;53.230;10.444;2023-02-11T17:41:37;8.00;99.90
12025;DHT22;6073;53.230;10.444;2023-02-11T17:44:03;8.00;99.90
12025;DHT22;6073;53.230;10.444;2023-02-11T17:46:29;8.00;99.90
12025;DHT22;6073;53.230;10.444;2023-02-11T17:48:57;8.00;99.90
12025;DHT22;6073;53.230;10.444;2023-02-11T17:51:33;8.00;99.90
12025;DHT22;6073;53.230;10.444;2023-02-11T17:54:04;8.00;99.90
12025;DHT22;6073;53.230;10.444;2023-02-11T17:56:35;8.00;99.90
12025;DHT22;6073;53.230;10.444;2023-02-11T17:59:01;8.00;99.90
12025;DHT22;6073;53.230;10.444;2023-02-11T18:01:28;7.90;99.90
12025;DHT22;6073;53.230;10.444;2023-02-11T18:03:53;7.90;99.90
12025;DHT22;6073;53.230;10.444;2023-02-11T18:06:19;7.90;99.90
12025;DHT22;6073;53.230;10.444;2023-02-11T18:08:46;7.90;99.90
12025;DHT22;6073;53.230;10.444;2023-02-11T18:11:12;7.90;99.90
12025;DHT22;6073;53.230;10.444;2023-02-11T18:13:39;7.90;99.90
12025;DHT22;6073;53.230;10.444;2023-02-11T18:16:05;7.90;99.90